sensor_id;sensor_type;location;lat;lon;timestamp;P1;durP1;ratioP1;P2;durP2;ratioP2
72201;SDS011;60105;54.956;73.412;2022-07-17T00:01:54;7.07;;;2.70;;
72201;SDS011;60105;54.956;73.412;2022-07-17T00:04:20;7.85;;;3.05;;
72201;SDS011;60105;54.956;73.412;2022-07-17T00:06:51;6.70;;;3.00;;
72201;SDS011;60105;54.956;73.412;2022-07-17T00:09:17;7.97;;;2.80;;
72201;SDS011;60105;54.956;73.412;2022-07-17T00:11:43;4.65;;;2.63;;
72201;SDS011;60105;54.956;73.412;2022-07-17T00:14:18;6.90;;;2.95;;
72201;SDS011;60105;54.956;73.412;2022-07-17T00:16:44;8.02;;;3.60;;
72201;SDS011;60105;54.956;73.412;2022-07-17T00:19:19;6.20;;;3.00;;
72201;SDS011;60105;54.956;73.412;2022-07-17T00:21:46;5.10;;;2.80;;
72201;SDS011;60105;54.956;73.412;2022-07-17T00:24:12;8.43;;;2.83;;
72201;SDS011;60105;54.956;73.412;2022-07-17T00:26:46;9.60;;;2.58;;
72201;SDS011;60105;54.956;73.412;2022-07-17T00:29:13;4.32;;;2.60;;
72201;SDS011;60105;54.956;73.412;2022-07-17T00:31:40;6.70;;;2.40;;
72201;SDS011;60105;54.956;73.412;2022-07-17T00:34:06;4.57;;;2.30;;
72201;SDS011;60105;54.956;73.412;2022-07-17T00:36:35;4.90;;;2.72;;
72201;SDS011;60105;54.956;73.412;2022-07-17T00:39:01;6.53;;;2.45;;
72201;SDS011;60105;54.956;73.412;2022-07-17T00:41:27;6.75;;;2.70;;
72201;SDS011;60105;54.956;73.412;2022-07-17T00:43:53;7.38;;;2.72;;
72201;SDS011;60105;54.956;73.412;2022-07-17T00:46:20;5.93;;;2.50;;
72201;SDS011;60105;54.956;73.412;2022-07-17T00:48:46;5.22;;;2.65;;
72201;SDS011;60105;54.956;73.412;2022-07-17T00:51:14;4.78;;;2.25;;
72201;SDS011;60105;54.956;73.412;2022-07-17T00:53:45;5.20;;;2.42;;
72201;SDS011;60105;54.956;73.412;2022-07-17T00:56:23;10.73;;;2.80;;
72201;SDS011;60105;54.956;73.412;2022-07-17T00:58:55;5.87;;;2.57;;
72201;SDS011;60105;54.956;73.412;2022-07-17T01:01:30;5.82;;;2.47;;
72201;SDS011;60105;54.956;73.412;2022-07-17T01:03:56;4.80;;;2.88;;
72201;SDS011;60105;54.956;73.412;2022-07-17T01:06:23;5.95;;;2.72;;
72201;SDS011;60105;54.956;73.412;2022-07-17T01:08:49;5.32;;;2.30;;
72201;SDS011;60105;54.956;73.412;2022-07-17T01:11:15;4.87;;;2.43;;
72201;SDS011;60105;54.956;73.412;2022-07-17T01:13:41;6.82;;;2.40;;
72201;SDS011;60105;54.956;73.412;2022-07-17T01:16:11;7.68;;;2.83;;
72201;SDS011;60105;54.956;73.412;2022-07-17T01:18:37;5.93;;;3.15;;
72201;SDS011;60105;54.956;73.412;2022-07-17T01:21:08;8.48;;;3.42;;
72201;SDS011;60105;54.956;73.412;2022-07-17T01:23:35;9.03;;;3.10;;
72201;SDS011;60105;54.956;73.412;2022-07-17T01:26:06;8.55;;;3.05;;
72201;SDS011;60105;54.956;73.412;2022-07-17T01:28:32;12.45;;;3.88;;
72201;SDS011;60105;54.956;73.412;2022-07-17T01:30:59;13.88;;;5.30;;
72201;SDS011;60105;54.956;73.412;2022-07-17T01:33:26;13.43;;;4.60;;
72201;SDS011;60105;54.956;73.412;2022-07-17T01:35:52;14.03;;;6.80;;
72201;SDS011;60105;54.956;73.412;2022-07-17T01:38:18;18.13;;;6.93;;
72201;SDS011;60105;54.956;73.412;2022-07-17T01:40:44;17.42;;;5.90;;
72201;SDS011;60105;54.956;73.412;2022-07-17T01:43:20;18.25;;;5.90;;
72201;SDS011;60105;54.956;73.412;2022-07-17T01:45:47;12.75;;;4.43;;
72201;SDS011;60105;54.956;73.412;2022-07-17T01:48:22;12.13;;;4.00;;
72201;SDS011;60105;54.956;73.412;2022-07-17T01:50:49;14.15;;;3.47;;
72201;SDS011;60105;54.956;73.412;2022-07-17T01:53:15;19.83;;;3.88;;
72201;SDS011;60105;54.956;73.412;2022-07-17T01:55:41;11.18;;;4.30;;
72201;SDS011;60105;54.956;73.412;2022-07-17T01:58:07;14.90;;;3.97;;
72201;SDS011;60105;54.956;73.412;2022-07-17T02:00:34;16.73;;;5.23;;
72201;SDS011;60105;54.956;73.412;2022-07-17T02:03:00;17.77;;;5.10;;
72201;SDS011;60105;54.956;73.412;2022-07-17T02:05:36;18.58;;;5.05;;
72201;SDS011;60105;54.956;73.412;2022-07-17T02:08:03;18.55;;;5.38;;
72201;SDS011;60105;54.956;73.412;2022-07-17T02:10:30;18.90;;;4.68;;
72201;SDS011;60105;54.956;73.412;2022-07-17T02:12:56;18.07;;;5.07;;
72201;SDS011;60105;54.956;73.412;2022-07-17T02:15:23;18.02;;;6.20;;
72201;SDS011;60105;54.956;73.412;2022-07-17T02:17:51;19.73;;;6.72;;
72201;SDS011;60105;54.956;73.412;2022-07-17T02:20:17;19.90;;;6.63;;
72201;SDS011;60105;54.956;73.412;2022-07-17T02:22:43;24.80;;;6.20;;
72201;SDS011;60105;54.956;73.412;2022-07-17T02:25:11;18.67;;;5.33;;
72201;SDS011;60105;54.956;73.412;2022-07-17T02:27:38;22.02;;;5.85;;
72201;SDS011;60105;54.956;73.412;2022-07-17T02:30:06;19.00;;;4.95;;
72201;SDS011;60105;54.956;73.412;2022-07-17T02:32:40;9.52;;;4.05;;
72201;SDS011;60105;54.956;73.412;2022-07-17T02:35:07;10.90;;;3.05;;
72201;SDS011;60105;54.956;73.412;2022-07-17T02:37:34;5.17;;;3.20;;
72201;SDS011;60105;54.956;73.412;2022-07-17T02:40:01;4.93;;;2.92;;
72201;SDS011;60105;54.956;73.412;2022-07-17T02:42:29;5.93;;;2.85;;
72201;SDS011;60105;54.956;73.412;2022-07-17T02:45:00;16.23;;;3.75;;
72201;SDS011;60105;54.956;73.412;2022-07-17T02:47:28;8.15;;;3.50;;
72201;SDS011;60105;54.956;73.412;2022-07-17T02:50:06;5.90;;;3.10;;
72201;SDS011;60105;54.956;73.412;2022-07-17T02:52:34;6.00;;;3.30;;
72201;SDS011;60105;54.956;73.412;2022-07-17T02:55:01;5.35;;;2.95;;
72201;SDS011;60105;54.956;73.412;2022-07-17T02:57:27;5.65;;;2.92;;
72201;SDS011;60105;54.956;73.412;2022-07-17T02:59:53;8.48;;;3.50;;
72201;SDS011;60105;54.956;73.412;2022-07-17T03:02:19;8.67;;;3.60;;
72201;SDS011;60105;54.956;73.412;2022-07-17T03:04:51;6.45;;;3.72;;
72201;SDS011;60105;54.956;73.412;2022-07-17T03:07:17;5.95;;;3.53;;
72201;SDS011;60105;54.956;73.412;2022-07-17T03:09:43;6.57;;;3.55;;
72201;SDS011;60105;54.956;73.412;2022-07-17T03:12:09;7.47;;;4.13;;
72201;SDS011;60105;54.956;73.412;2022-07-17T03:14:36;6.30;;;3.97;;
72201;SDS011;60105;54.956;73.412;2022-07-17T03:17:06;11.90;;;4.18;;
72201;SDS011;60105;54.956;73.412;2022-07-17T03:19:32;9.18;;;3.90;;
72201;SDS011;60105;54.956;73.412;2022-07-17T03:22:08;9.07;;;4.40;;
72201;SDS011;60105;54.956;73.412;2022-07-17T03:24:34;7.25;;;4.88;;
72201;SDS011;60105;54.956;73.412;2022-07-17T03:27:00;6.23;;;4.53;;
72201;SDS011;60105;54.956;73.412;2022-07-17T03:29:27;7.80;;;4.75;;
72201;SDS011;60105;54.956;73.412;2022-07-17T03:31:53;6.93;;;5.00;;
72201;SDS011;60105;54.956;73.412;2022-07-17T03:34:19;6.93;;;4.10;;
72201;SDS011;60105;54.956;73.412;2022-07-17T03:36:45;7.05;;;4.30;;
72201;SDS011;60105;54.956;73.412;2022-07-17T03:39:13;8.00;;;4.10;;
72201;SDS011;60105;54.956;73.412;2022-07-17T03:41:40;7.55;;;4.43;;
72201;SDS011;60105;54.956;73.412;2022-07-17T03:44:06;20.10;;;8.05;;
72201;SDS011;60105;54.956;73.412;2022-07-17T03:46:34;7.65;;;4.78;;
72201;SDS011;60105;54.956;73.412;2022-07-17T03:49:01;9.05;;;4.80;;
72201;SDS011;60105;54.956;73.412;2022-07-17T03:51:27;11.73;;;5.30;;
72201;SDS011;60105;54.956;73.412;2022-07-17T03:54:04;12.45;;;4.93;;
72201;SDS011;60105;54.956;73.412;2022-07-17T03:56:34;6.85;;;3.88;;
72201;SDS011;60105;54.956;73.412;2022-07-17T03:59:01;7.43;;;4.20;;
72201;SDS011;60105;54.956;73.412;2022-07-17T04:01:27;6.82;;;3.42;;
72201;SDS011;60105;54.956;73.412;2022-07-17T04:03:53;7.33;;;3.30;;
72201;SDS011;60105;54.956;73.412;2022-07-17T04:06:30;7.75;;;3.33;;
72201;SDS011;60105;54.956;73.412;2022-07-17T04:08:56;5.72;;;3.15;;
72201;SDS011;60105;54.956;73.412;2022-07-17T04:11:22;4.15;;;2.75;;
72201;SDS011;60105;54.956;73.412;2022-07-17T04:13:48;5.82;;;3.00;;
72201;SDS011;60105;54.956;73.412;2022-07-17T04:16:14;6.50;;;3.00;;
72201;SDS011;60105;54.956;73.412;2022-07-17T04:18:40;5.30;;;3.40;;
72201;SDS011;60105;54.956;73.412;2022-07-17T04:21:08;8.25;;;3.10;;
72201;SDS011;60105;54.956;73.412;2022-07-17T04:23:45;4.63;;;3.00;;
72201;SDS011;60105;54.956;73.412;2022-07-17T04:26:13;5.65;;;3.13;;
72201;SDS011;60105;54.956;73.412;2022-07-17T04:28:40;5.50;;;3.00;;
72201;SDS011;60105;54.956;73.412;2022-07-17T04:31:14;5.47;;;3.13;;
72201;SDS011;60105;54.956;73.412;2022-07-17T04:33:40;5.82;;;3.20;;
72201;SDS011;60105;54.956;73.412;2022-07-17T04:36:07;5.30;;;3.00;;
72201;SDS011;60105;54.956;73.412;2022-07-17T04:38:33;4.63;;;2.92;;
72201;SDS011;60105;54.956;73.412;2022-07-17T04:40:59;6.33;;;2.77;;
72201;SDS011;60105;54.956;73.412;2022-07-17T04:43:25;5.45;;;2.60;;
72201;SDS011;60105;54.956;73.412;2022-07-17T04:45:59;4.53;;;2.90;;
72201;SDS011;60105;54.956;73.412;2022-07-17T04:48:36;5.90;;;3.20;;
72201;SDS011;60105;54.956;73.412;2022-07-17T04:51:02;4.93;;;2.80;;
72201;SDS011;60105;54.956;73.412;2022-07-17T04:53:28;8.73;;;3.17;;
72201;SDS011;60105;54.956;73.412;2022-07-17T04:55:56;8.35;;;3.25;;
72201;SDS011;60105;54.956;73.412;2022-07-17T04:58:22;6.30;;;2.95;;
72201;SDS011;60105;54.956;73.412;2022-07-17T05:00:48;4.03;;;2.47;;
72201;SDS011;60105;54.956;73.412;2022-07-17T05:03:14;4.18;;;2.67;;
72201;SDS011;60105;54.956;73.412;2022-07-17T05:05:41;5.40;;;2.80;;
72201;SDS011;60105;54.956;73.412;2022-07-17T05:08:07;5.75;;;2.50;;
72201;SDS011;60105;54.956;73.412;2022-07-17T05:10:33;4.57;;;2.20;;
72201;SDS011;60105;54.956;73.412;2022-07-17T05:12:59;6.43;;;2.70;;
72201;SDS011;60105;54.956;73.412;2022-07-17T05:15:25;5.32;;;2.58;;
72201;SDS011;60105;54.956;73.412;2022-07-17T05:17:52;4.97;;;2.47;;
72201;SDS011;60105;54.956;73.412;2022-07-17T05:20:18;4.72;;;2.60;;
72201;SDS011;60105;54.956;73.412;2022-07-17T05:22:44;4.53;;;2.50;;
72201;SDS011;60105;54.956;73.412;2022-07-17T05:25:10;4.22;;;2.63;;
72201;SDS011;60105;54.956;73.412;2022-07-17T05:27:37;4.95;;;1.90;;
72201;SDS011;60105;54.956;73.412;2022-07-17T05:30:03;5.20;;;2.37;;
72201;SDS011;60105;54.956;73.412;2022-07-17T05:32:30;5.70;;;3.08;;
72201;SDS011;60105;54.956;73.412;2022-07-17T05:34:56;4.15;;;2.30;;
72201;SDS011;60105;54.956;73.412;2022-07-17T05:37:32;3.90;;;2.08;;
72201;SDS011;60105;54.956;73.412;2022-07-17T05:39:59;4.55;;;2.20;;
72201;SDS011;60105;54.956;73.412;2022-07-17T05:42:28;5.77;;;2.30;;
72201;SDS011;60105;54.956;73.412;2022-07-17T05:44:54;4.40;;;1.67;;
72201;SDS011;60105;54.956;73.412;2022-07-17T05:47:20;6.47;;;2.35;;
72201;SDS011;60105;54.956;73.412;2022-07-17T05:49:47;5.80;;;2.42;;
72201;SDS011;60105;54.956;73.412;2022-07-17T05:52:13;4.95;;;2.42;;
72201;SDS011;60105;54.956;73.412;2022-07-17T05:54:39;3.80;;;2.10;;
72201;SDS011;60105;54.956;73.412;2022-07-17T05:57:05;21.52;;;10.07;;
72201;SDS011;60105;54.956;73.412;2022-07-17T05:59:41;7.40;;;2.30;;
72201;SDS011;60105;54.956;73.412;2022-07-17T06:02:10;5.68;;;1.95;;
72201;SDS011;60105;54.956;73.412;2022-07-17T06:04:37;3.70;;;2.20;;
72201;SDS011;60105;54.956;73.412;2022-07-17T06:07:03;5.57;;;2.37;;
72201;SDS011;60105;54.956;73.412;2022-07-17T06:09:33;5.32;;;2.30;;
72201;SDS011;60105;54.956;73.412;2022-07-17T06:12:00;5.35;;;2.08;;
72201;SDS011;60105;54.956;73.412;2022-07-17T06:14:26;6.85;;;2.85;;
72201;SDS011;60105;54.956;73.412;2022-07-17T06:17:00;6.15;;;3.53;;
72201;SDS011;60105;54.956;73.412;2022-07-17T06:19:26;5.13;;;1.87;;
72201;SDS011;60105;54.956;73.412;2022-07-17T06:21:52;8.95;;;2.35;;
72201;SDS011;60105;54.956;73.412;2022-07-17T06:24:18;5.30;;;2.50;;
72201;SDS011;60105;54.956;73.412;2022-07-17T06:26:45;5.50;;;2.40;;
72201;SDS011;60105;54.956;73.412;2022-07-17T06:29:11;7.07;;;2.20;;
72201;SDS011;60105;54.956;73.412;2022-07-17T06:31:37;4.13;;;1.93;;
72201;SDS011;60105;54.956;73.412;2022-07-17T06:34:04;4.22;;;2.00;;
72201;SDS011;60105;54.956;73.412;2022-07-17T06:36:30;4.03;;;2.38;;
72201;SDS011;60105;54.956;73.412;2022-07-17T06:38:56;4.10;;;1.67;;
72201;SDS011;60105;54.956;73.412;2022-07-17T06:41:26;6.13;;;1.85;;
72201;SDS011;60105;54.956;73.412;2022-07-17T06:43:57;5.40;;;2.13;;
72201;SDS011;60105;54.956;73.412;2022-07-17T06:46:29;4.38;;;1.60;;
72201;SDS011;60105;54.956;73.412;2022-07-17T06:48:55;5.60;;;2.33;;
72201;SDS011;60105;54.956;73.412;2022-07-17T06:51:21;8.77;;;1.85;;
72201;SDS011;60105;54.956;73.412;2022-07-17T06:53:47;5.88;;;2.15;;
72201;SDS011;60105;54.956;73.412;2022-07-17T06:56:13;3.60;;;1.50;;
72201;SDS011;60105;54.956;73.412;2022-07-17T06:58:40;7.70;;;2.28;;
72201;SDS011;60105;54.956;73.412;2022-07-17T07:01:06;5.43;;;2.00;;
72201;SDS011;60105;54.956;73.412;2022-07-17T07:03:32;4.30;;;2.53;;
72201;SDS011;60105;54.956;73.412;2022-07-17T07:06:08;3.33;;;1.80;;
72201;SDS011;60105;54.956;73.412;2022-07-17T07:08:34;3.70;;;1.97;;
72201;SDS011;60105;54.956;73.412;2022-07-17T07:11:01;4.22;;;1.58;;
72201;SDS011;60105;54.956;73.412;2022-07-17T07:13:28;6.95;;;2.10;;
72201;SDS011;60105;54.956;73.412;2022-07-17T07:15:54;3.42;;;1.83;;
72201;SDS011;60105;54.956;73.412;2022-07-17T07:18:21;4.90;;;2.10;;
72201;SDS011;60105;54.956;73.412;2022-07-17T07:20:47;5.53;;;2.13;;
72201;SDS011;60105;54.956;73.412;2022-07-17T07:23:14;4.35;;;2.10;;
72201;SDS011;60105;54.956;73.412;2022-07-17T07:25:40;4.40;;;2.00;;
72201;SDS011;60105;54.956;73.412;2022-07-17T07:28:06;5.15;;;2.15;;
72201;SDS011;60105;54.956;73.412;2022-07-17T07:30:32;3.88;;;1.90;;
72201;SDS011;60105;54.956;73.412;2022-07-17T07:33:00;4.27;;;1.87;;
72201;SDS011;60105;54.956;73.412;2022-07-17T07:35:26;3.70;;;2.00;;
72201;SDS011;60105;54.956;73.412;2022-07-17T07:37:52;3.67;;;1.70;;
72201;SDS011;60105;54.956;73.412;2022-07-17T07:40:19;5.18;;;2.08;;
72201;SDS011;60105;54.956;73.412;2022-07-17T07:42:50;4.50;;;1.85;;
72201;SDS011;60105;54.956;73.412;2022-07-17T07:45:25;3.70;;;1.60;;
72201;SDS011;60105;54.956;73.412;2022-07-17T07:48:01;3.50;;;1.70;;
72201;SDS011;60105;54.956;73.412;2022-07-17T07:50:28;6.07;;;1.70;;
72201;SDS011;60105;54.956;73.412;2022-07-17T07:52:54;4.80;;;1.80;;
72201;SDS011;60105;54.956;73.412;2022-07-17T07:55:21;4.32;;;2.17;;
72201;SDS011;60105;54.956;73.412;2022-07-17T07:58:02;8.17;;;2.10;;
72201;SDS011;60105;54.956;73.412;2022-07-17T08:00:28;9.00;;;2.10;;
72201;SDS011;60105;54.956;73.412;2022-07-17T08:02:54;4.30;;;2.10;;
72201;SDS011;60105;54.956;73.412;2022-07-17T08:05:21;5.35;;;2.33;;
72201;SDS011;60105;54.956;73.412;2022-07-17T08:07:47;3.92;;;1.95;;
72201;SDS011;60105;54.956;73.412;2022-07-17T08:10:13;4.00;;;2.10;;
72201;SDS011;60105;54.956;73.412;2022-07-17T08:12:39;5.70;;;2.60;;
72201;SDS011;60105;54.956;73.412;2022-07-17T08:15:07;4.53;;;1.90;;
72201;SDS011;60105;54.956;73.412;2022-07-17T08:17:34;5.00;;;2.10;;
72201;SDS011;60105;54.956;73.412;2022-07-17T08:20:00;4.80;;;2.05;;
72201;SDS011;60105;54.956;73.412;2022-07-17T08:22:26;4.20;;;2.00;;
72201;SDS011;60105;54.956;73.412;2022-07-17T08:24:52;4.18;;;2.03;;
72201;SDS011;60105;54.956;73.412;2022-07-17T08:27:19;5.10;;;2.28;;
72201;SDS011;60105;54.956;73.412;2022-07-17T08:29:45;6.50;;;2.30;;
72201;SDS011;60105;54.956;73.412;2022-07-17T08:32:11;6.40;;;2.35;;
72201;SDS011;60105;54.956;73.412;2022-07-17T08:34:38;3.87;;;2.03;;
72201;SDS011;60105;54.956;73.412;2022-07-17T08:37:06;4.22;;;2.17;;
72201;SDS011;60105;54.956;73.412;2022-07-17T08:39:32;4.90;;;2.22;;
72201;SDS011;60105;54.956;73.412;2022-07-17T08:41:58;4.35;;;2.13;;
72201;SDS011;60105;54.956;73.412;2022-07-17T08:44:27;4.30;;;2.33;;
72201;SDS011;60105;54.956;73.412;2022-07-17T08:46:53;7.83;;;2.77;;
72201;SDS011;60105;54.956;73.412;2022-07-17T08:49:20;5.60;;;2.25;;
72201;SDS011;60105;54.956;73.412;2022-07-17T08:51:58;4.90;;;2.50;;
72201;SDS011;60105;54.956;73.412;2022-07-17T08:54:25;6.22;;;2.25;;
72201;SDS011;60105;54.956;73.412;2022-07-17T08:56:52;10.75;;;2.58;;
72201;SDS011;60105;54.956;73.412;2022-07-17T08:59:28;6.03;;;2.50;;
72201;SDS011;60105;54.956;73.412;2022-07-17T09:01:59;6.40;;;2.65;;
72201;SDS011;60105;54.956;73.412;2022-07-17T09:04:25;6.03;;;1.92;;
72201;SDS011;60105;54.956;73.412;2022-07-17T09:07:03;6.18;;;2.33;;
72201;SDS011;60105;54.956;73.412;2022-07-17T09:09:50;5.25;;;2.30;;
72201;SDS011;60105;54.956;73.412;2022-07-17T09:12:28;3.87;;;2.07;;
72201;SDS011;60105;54.956;73.412;2022-07-17T09:15:15;6.63;;;2.78;;
72201;SDS011;60105;54.956;73.412;2022-07-17T09:17:52;4.65;;;2.10;;
72201;SDS011;60105;54.956;73.412;2022-07-17T09:20:21;3.70;;;2.10;;
72201;SDS011;60105;54.956;73.412;2022-07-17T09:28:19;6.43;;;2.65;;
72201;SDS011;60105;54.956;73.412;2022-07-17T09:30:47;5.25;;;1.92;;
72201;SDS011;60105;54.956;73.412;2022-07-17T09:33:19;5.03;;;2.20;;
72201;SDS011;60105;54.956;73.412;2022-07-17T09:35:49;6.80;;;2.08;;
72201;SDS011;60105;54.956;73.412;2022-07-17T09:38:31;4.87;;;2.20;;
72201;SDS011;60105;54.956;73.412;2022-07-17T09:41:13;6.38;;;2.40;;
72201;SDS011;60105;54.956;73.412;2022-07-17T09:43:52;6.00;;;2.20;;
72201;SDS011;60105;54.956;73.412;2022-07-17T09:46:32;6.20;;;2.50;;
72201;SDS011;60105;54.956;73.412;2022-07-17T09:49:04;3.60;;;2.22;;
72201;SDS011;60105;54.956;73.412;2022-07-17T09:51:35;4.47;;;2.50;;
72201;SDS011;60105;54.956;73.412;2022-07-17T09:54:04;5.25;;;2.35;;
72201;SDS011;60105;54.956;73.412;2022-07-17T09:56:33;4.55;;;2.60;;
72201;SDS011;60105;54.956;73.412;2022-07-17T09:59:11;6.78;;;2.58;;
72201;SDS011;60105;54.956;73.412;2022-07-17T10:01:39;5.75;;;2.53;;
72201;SDS011;60105;54.956;73.412;2022-07-17T10:04:16;6.00;;;2.80;;
72201;SDS011;60105;54.956;73.412;2022-07-17T10:06:45;5.28;;;3.10;;
72201;SDS011;60105;54.956;73.412;2022-07-17T10:09:20;8.00;;;2.83;;
72201;SDS011;60105;54.956;73.412;2022-07-17T10:11:47;5.38;;;2.88;;
72201;SDS011;60105;54.956;73.412;2022-07-17T10:14:13;6.63;;;2.60;;
72201;SDS011;60105;54.956;73.412;2022-07-17T10:16:41;8.07;;;2.40;;
72201;SDS011;60105;54.956;73.412;2022-07-17T10:19:20;4.68;;;2.10;;
72201;SDS011;60105;54.956;73.412;2022-07-17T10:21:52;5.90;;;2.38;;
72201;SDS011;60105;54.956;73.412;2022-07-17T10:24:27;6.35;;;2.60;;
72201;SDS011;60105;54.956;73.412;2022-07-17T10:26:55;4.85;;;2.30;;
72201;SDS011;60105;54.956;73.412;2022-07-17T10:29:38;5.80;;;2.17;;
72201;SDS011;60105;54.956;73.412;2022-07-17T10:32:17;5.32;;;2.60;;
72201;SDS011;60105;54.956;73.412;2022-07-17T10:35:03;4.63;;;2.53;;
72201;SDS011;60105;54.956;73.412;2022-07-17T10:45:31;4.10;;;2.58;;
72201;SDS011;60105;54.956;73.412;2022-07-17T10:48:05;4.30;;;2.40;;
72201;SDS011;60105;54.956;73.412;2022-07-17T10:53:19;6.63;;;2.40;;
72201;SDS011;60105;54.956;73.412;2022-07-17T10:55:49;6.37;;;2.60;;
72201;SDS011;60105;54.956;73.412;2022-07-17T10:58:29;4.90;;;2.30;;
72201;SDS011;60105;54.956;73.412;2022-07-17T11:03:32;6.25;;;2.90;;
72201;SDS011;60105;54.956;73.412;2022-07-17T11:06:06;6.72;;;2.58;;
72201;SDS011;60105;54.956;73.412;2022-07-17T11:08:43;7.00;;;2.80;;
72201;SDS011;60105;54.956;73.412;2022-07-17T11:11:14;6.70;;;2.83;;
72201;SDS011;60105;54.956;73.412;2022-07-17T11:13:42;7.05;;;2.90;;
72201;SDS011;60105;54.956;73.412;2022-07-17T11:16:08;5.07;;;2.60;;
72201;SDS011;60105;54.956;73.412;2022-07-17T11:18:35;4.25;;;2.40;;
72201;SDS011;60105;54.956;73.412;2022-07-17T11:21:04;6.30;;;3.10;;
72201;SDS011;60105;54.956;73.412;2022-07-17T11:23:31;5.07;;;2.70;;
72201;SDS011;60105;54.956;73.412;2022-07-17T11:28:39;5.75;;;2.50;;
72201;SDS011;60105;54.956;73.412;2022-07-17T11:31:17;6.03;;;2.65;;
72201;SDS011;60105;54.956;73.412;2022-07-17T11:33:49;4.40;;;2.80;;
72201;SDS011;60105;54.956;73.412;2022-07-17T11:39:01;6.28;;;2.63;;
72201;SDS011;60105;54.956;73.412;2022-07-17T11:41:39;7.65;;;2.67;;
72201;SDS011;60105;54.956;73.412;2022-07-17T11:44:14;7.95;;;2.92;;
72201;SDS011;60105;54.956;73.412;2022-07-17T11:46:45;6.63;;;3.23;;
72201;SDS011;60105;54.956;73.412;2022-07-17T11:49:25;4.93;;;3.08;;
72201;SDS011;60105;54.956;73.412;2022-07-17T11:51:57;5.68;;;2.53;;
72201;SDS011;60105;54.956;73.412;2022-07-17T11:54:25;8.07;;;3.40;;
72201;SDS011;60105;54.956;73.412;2022-07-17T11:57:02;7.15;;;2.80;;
72201;SDS011;60105;54.956;73.412;2022-07-17T11:59:37;4.60;;;2.40;;
72201;SDS011;60105;54.956;73.412;2022-07-17T12:02:09;6.88;;;2.58;;
72201;SDS011;60105;54.956;73.412;2022-07-17T12:04:48;5.55;;;2.83;;
72201;SDS011;60105;54.956;73.412;2022-07-17T12:07:21;5.13;;;2.30;;
72201;SDS011;60105;54.956;73.412;2022-07-17T12:09:48;5.50;;;2.65;;
72201;SDS011;60105;54.956;73.412;2022-07-17T12:12:21;5.60;;;2.60;;
72201;SDS011;60105;54.956;73.412;2022-07-17T12:15:02;6.75;;;2.67;;
72201;SDS011;60105;54.956;73.412;2022-07-17T12:17:38;5.22;;;2.42;;
72201;SDS011;60105;54.956;73.412;2022-07-17T12:20:06;5.32;;;2.55;;
72201;SDS011;60105;54.956;73.412;2022-07-17T12:22:43;5.15;;;2.97;;
72201;SDS011;60105;54.956;73.412;2022-07-17T12:25:29;4.70;;;2.73;;
72201;SDS011;60105;54.956;73.412;2022-07-17T12:28:03;4.97;;;3.25;;
72201;SDS011;60105;54.956;73.412;2022-07-17T12:30:29;5.78;;;2.92;;
72201;SDS011;60105;54.956;73.412;2022-07-17T12:32:58;5.72;;;3.63;;
72201;SDS011;60105;54.956;73.412;2022-07-17T12:35:24;5.68;;;2.75;;
72201;SDS011;60105;54.956;73.412;2022-07-17T12:37:50;7.00;;;3.20;;
72201;SDS011;60105;54.956;73.412;2022-07-17T12:40:16;8.10;;;3.00;;
72201;SDS011;60105;54.956;73.412;2022-07-17T12:42:42;5.00;;;2.72;;
72201;SDS011;60105;54.956;73.412;2022-07-17T12:45:09;7.07;;;3.35;;
72201;SDS011;60105;54.956;73.412;2022-07-17T12:47:35;5.72;;;3.50;;
72201;SDS011;60105;54.956;73.412;2022-07-17T12:50:01;5.57;;;3.50;;
72201;SDS011;60105;54.956;73.412;2022-07-17T12:52:28;7.03;;;3.50;;
72201;SDS011;60105;54.956;73.412;2022-07-17T12:54:54;6.80;;;3.58;;
72201;SDS011;60105;54.956;73.412;2022-07-17T12:57:20;7.40;;;3.60;;
72201;SDS011;60105;54.956;73.412;2022-07-17T12:59:46;5.97;;;3.45;;
72201;SDS011;60105;54.956;73.412;2022-07-17T13:02:12;6.20;;;3.67;;
72201;SDS011;60105;54.956;73.412;2022-07-17T13:04:43;5.40;;;3.28;;
72201;SDS011;60105;54.956;73.412;2022-07-17T13:07:10;5.88;;;2.97;;
72201;SDS011;60105;54.956;73.412;2022-07-17T13:09:45;5.57;;;3.10;;
72201;SDS011;60105;54.956;73.412;2022-07-17T13:12:16;6.32;;;3.30;;
72201;SDS011;60105;54.956;73.412;2022-07-17T13:14:42;6.70;;;3.20;;
72201;SDS011;60105;54.956;73.412;2022-07-17T13:17:08;7.65;;;3.53;;
72201;SDS011;60105;54.956;73.412;2022-07-17T13:19:35;5.70;;;3.30;;
72201;SDS011;60105;54.956;73.412;2022-07-17T13:22:01;5.78;;;3.15;;
72201;SDS011;60105;54.956;73.412;2022-07-17T13:24:31;6.53;;;3.45;;
72201;SDS011;60105;54.956;73.412;2022-07-17T13:27:02;6.30;;;3.53;;
72201;SDS011;60105;54.956;73.412;2022-07-17T13:29:33;9.10;;;3.60;;
72201;SDS011;60105;54.956;73.412;2022-07-17T13:31:59;5.43;;;3.75;;
72201;SDS011;60105;54.956;73.412;2022-07-17T13:34:25;7.22;;;3.80;;
72201;SDS011;60105;54.956;73.412;2022-07-17T13:36:52;6.50;;;3.58;;
72201;SDS011;60105;54.956;73.412;2022-07-17T13:39:18;5.03;;;3.27;;
72201;SDS011;60105;54.956;73.412;2022-07-17T13:41:44;5.30;;;3.70;;
72201;SDS011;60105;54.956;73.412;2022-07-17T13:44:11;8.07;;;3.13;;
72201;SDS011;60105;54.956;73.412;2022-07-17T13:46:37;5.75;;;3.63;;
72201;SDS011;60105;54.956;73.412;2022-07-17T13:49:06;6.45;;;3.78;;
72201;SDS011;60105;54.956;73.412;2022-07-17T13:51:33;5.00;;;3.60;;
72201;SDS011;60105;54.956;73.412;2022-07-17T13:54:00;7.30;;;3.83;;
72201;SDS011;60105;54.956;73.412;2022-07-17T13:56:27;5.78;;;3.85;;
72201;SDS011;60105;54.956;73.412;2022-07-17T13:58:53;8.20;;;4.10;;
72201;SDS011;60105;54.956;73.412;2022-07-17T14:01:19;6.45;;;3.80;;
72201;SDS011;60105;54.956;73.412;2022-07-17T14:03:46;6.73;;;4.10;;
72201;SDS011;60105;54.956;73.412;2022-07-17T14:06:12;8.45;;;3.65;;
72201;SDS011;60105;54.956;73.412;2022-07-17T14:08:49;5.65;;;3.67;;
72201;SDS011;60105;54.956;73.412;2022-07-17T14:11:25;8.63;;;4.20;;
72201;SDS011;60105;54.956;73.412;2022-07-17T14:13:51;6.10;;;3.92;;
72201;SDS011;60105;54.956;73.412;2022-07-17T14:16:23;7.33;;;4.50;;
72201;SDS011;60105;54.956;73.412;2022-07-17T14:18:59;8.27;;;3.75;;
72201;SDS011;60105;54.956;73.412;2022-07-17T14:21:31;10.40;;;3.20;;
72201;SDS011;60105;54.956;73.412;2022-07-17T14:23:59;8.65;;;3.10;;
72201;SDS011;60105;54.956;73.412;2022-07-17T14:26:27;6.88;;;3.50;;
72201;SDS011;60105;54.956;73.412;2022-07-17T14:29:02;7.43;;;4.10;;
72201;SDS011;60105;54.956;73.412;2022-07-17T14:31:29;13.95;;;4.10;;
72201;SDS011;60105;54.956;73.412;2022-07-17T14:33:55;7.32;;;4.20;;
72201;SDS011;60105;54.956;73.412;2022-07-17T14:36:22;7.03;;;4.32;;
72201;SDS011;60105;54.956;73.412;2022-07-17T14:38:48;8.40;;;4.18;;
72201;SDS011;60105;54.956;73.412;2022-07-17T14:41:19;6.87;;;4.33;;
72201;SDS011;60105;54.956;73.412;2022-07-17T14:43:47;6.60;;;4.03;;
72201;SDS011;60105;54.956;73.412;2022-07-17T14:46:18;6.82;;;4.22;;
72201;SDS011;60105;54.956;73.412;2022-07-17T14:48:44;6.95;;;4.53;;
72201;SDS011;60105;54.956;73.412;2022-07-17T14:51:15;7.00;;;3.85;;
72201;SDS011;60105;54.956;73.412;2022-07-17T14:53:42;8.83;;;4.57;;
72201;SDS011;60105;54.956;73.412;2022-07-17T14:56:13;11.80;;;4.80;;
72201;SDS011;60105;54.956;73.412;2022-07-17T14:58:50;8.35;;;4.65;;
72201;SDS011;60105;54.956;73.412;2022-07-17T15:01:16;7.65;;;5.15;;
72201;SDS011;60105;54.956;73.412;2022-07-17T15:03:42;9.05;;;5.60;;
72201;SDS011;60105;54.956;73.412;2022-07-17T15:06:08;8.30;;;5.53;;
72201;SDS011;60105;54.956;73.412;2022-07-17T15:08:35;10.13;;;5.38;;